ADDS METAR Data INFO
IDs: Format: Raw Decoded Include TAF

Data at: 0454 UTC 23 May 2017

KASL 230435Z AUTO 00000KT 10SM SCT004 OVC016 16/14 A2995 RMK AO1 T01550143
KASL 230415Z AUTO 36003KT 10SM SCT004 SCT008 OVC016 16/14 A2995 RMK AO1 T01550142
KASL 230355Z AUTO 00000KT 10SM BKN006 OVC016 16/14 A2996 RMK AO1 T01550142
KASL 230335Z AUTO 00000KT 10SM BKN008 BKN016 OVC040 16/14 A2996 RMK AO1 T01550142
KASL 230315Z AUTO 00000KT 10SM SCT008 BKN016 OVC038 16/14 A2995 RMK AO1 T01550142
KASL 230255Z AUTO 00000KT 10SM BKN010 BKN016 OVC038 16/14 A2996 RMK AO1 T01550142
KASL 230235Z AUTO 02003KT 10SM OVC010 16/14 A2996 RMK AO1 T01550142
KASL 230215Z AUTO 00000KT 10SM OVC010 16/14 A2995 RMK AO1 T01550142
KASL 230155Z AUTO 00000KT 10SM SCT004 OVC010 16/14 A2996 RMK AO1 T01550142
KASL 230135Z AUTO 00000KT 10SM OVC008 16/14 A2996 RMK AO1 T01550142
KASL 230115Z AUTO 00000KT 10SM OVC006 16/14 A2996 RMK AO1 T01550142
KASL 230055Z AUTO 02003KT 10SM BKN006 BKN011 OVC016 16/14 A2996 RMK AO1 T01550142
KASL 230035Z AUTO 00000KT 10SM SCT006 BKN011 OVC018 16/14 A2996 RMK AO1 T01550142
KASL 230015Z AUTO 02003KT 10SM SCT006 BKN011 OVC020 16/14 A2997 RMK AO1 T01550142
KASL 222355Z AUTO 00000KT 5SM BKN006 BKN010 OVC022 16/14 A2997 RMK AO1 60016 T01550142 10170 20155
KASL 222335Z AUTO 00000KT 3SM SCT004 BKN009 OVC012 16/14 A2997 RMK AO1 T01550142
KASL 222315Z AUTO 00000KT 5SM BKN008 OVC013 16/14 A2998 RMK AO1 T01550142
KASL 222255Z AUTO 03003KT 7SM SCT005 BKN009 OVC015 16/15 A2998 RMK AO1 T01580146
KASL 222235Z AUTO 04003KT 2SM BKN005 OVC010 16/14 A2999 RMK AO1 T01560143
KASL 222215Z AUTO 02003KT 4SM BKN005 OVC011 16/14 A2999 RMK AO1 T01550142
KASL 222155Z AUTO 00000KT 5SM SCT004 BKN011 16/14 A3000 RMK AO1 T01550142
KASL 222135Z AUTO 02004KT 1 3/4SM OVC008 16/14 A3000 RMK AO1 T01560143
KASL 222115Z AUTO 00000KT 7SM SCT006 OVC012 16/15 A3000 RMK AO1 T01620148
KASL 222055Z AUTO 04004KT 10SM BKN008 OVC012 16/14 A3001 RMK AO1 60016 T01550142
KASL 222035Z AUTO 03003KT 10SM BKN007 OVC011 16/15 A3002 RMK AO1 T01590146
KASL 222015Z AUTO 04003KT 10SM BKN007 BKN011 OVC018 16/14 A3003 RMK AO1 T01570144
KASL 221955Z AUTO 03003KT 10SM SCT007 OVC018 17/16 A3003 RMK AO1 P0005 T01680155
KASL 221935Z AUTO 03003KT 7SM SCT004 SCT008 BKN018 16/15 A3004 RMK AO1 P0005 T01600149
KASL 221915Z AUTO 02003KT 5SM SCT004 SCT007 OVC012 16/15 A3004 RMK AO1 P0003 T01590147
KASL 221855Z AUTO 00000KT 4SM SCT004 BKN010 BKN016 17/16 A3005 RMK AO1 P0011 T01690155
KASL 221835Z AUTO 00000KT 2 1/2SM SCT004 BKN007 OVC020 17/16 A3006 RMK AO1 P0008 T01700156
KASL 221815Z AUTO 00000KT 4SM SCT006 SCT010 SCT018 17/16 A3007 RMK AO1 P0002 T01700156
KASL 221755Z AUTO 00000KT 7SM SCT008 SCT011 BKN018 17/16 A3007 RMK AO1 P0003 60029 T01700156 10170 20155
KASL 221735Z AUTO 09005KT 7SM CLR 17/16 A3007 RMK AO1 P0002 T01700156
KASL 221715Z AUTO 06004KT 7SM SCT005 SCT022 SCT028 17/16 A3008 RMK AO1 P0001 T01690155
KASL 221655Z AUTO 09003KT 7SM SCT008 BKN022 BKN031 17/15 A3008 RMK AO1 P0003 T01650152
KASL 221635Z AUTO 09003KT 7SM BKN010 BKN029 OVC110 17/16 A3008 RMK AO1 P0001 T01690156
KASL 221615Z AUTO 09005KT 10SM OVC010 17/16 A3008 RMK AO1 T01700155
KASL 221555Z AUTO 07005KT 10SM BKN008 17/16 A3008 RMK AO1 P0003 T01700156
KASL 221535Z AUTO 05004KT 10SM SCT003 SCT010 SCT023 17/16 A3008 RMK AO1 P0003 T01700156
KASL 221515Z AUTO 00000KT 5SM SCT025 SCT038 BKN060 17/15 A3008 RMK AO1 P0002 T01670154
KASL 221455Z AUTO 08003KT 10SM SCT024 SCT037 SCT048 16/14 A3009 RMK AO1 P0006 60020 T01550141
KASL 221435Z AUTO 09006KT 5SM SCT024 SCT030 BKN037 16/14 A3009 RMK AO1 P0005 T01550141
KASL 221415Z AUTO 09003KT 7SM SCT043 SCT055 BKN100 16/14 A3010 RMK AO1 P0001 T01550140
KASL 221355Z AUTO 00000KT 10SM BKN100 BKN120 16/15 A3010 RMK AO1 P0005 T01590145
KASL 221335Z AUTO 10003KT 10SM SCT036 SCT041 BKN100 16/15 A3010 RMK AO1 P0005 T01590145
KASL 221315Z AUTO 11004KT 5SM SCT037 BKN043 OVC050 16/14 A3009 RMK AO1 P0003 T01550142
KASL 221255Z AUTO 12004KT 5SM SCT030 BKN045 OVC050 17/16 A3010 RMK AO1 P0009 T01700156
KASL 221235Z AUTO 16005KT 4SM SCT027 BKN037 OVC055 17/16 A3013 RMK AO1 P0006 T01700156
KASL 221215Z AUTO 17003KT 4SM SCT032 BKN060 OVC090 17/16 A3014 RMK AO1 P0003 T01700155
KASL 221155Z AUTO 00000KT 7SM SCT070 OVC085 17/16 A3014 RMK AO1 P0001 60005 70075 T01700155 10183 20170
KASL 221135Z AUTO 00000KT 10SM OVC085 17/16 A3012 RMK AO1 P0001 T01700155
KASL 221115Z AUTO 00000KT 10SM SCT070 OVC085 17/16 A3012 RMK AO1 T01700155
KASL 221055Z AUTO 00000KT 10SM BKN070 BKN080 OVC100 17/15 A3011 RMK AO1 P0001 T01700153
KASL 221035Z AUTO 00000KT 10SM SCT060 SCT080 BKN100 17/16 A3011 RMK AO1 P0001 T01700156
KASL 221015Z AUTO 00000KT 7SM SCT060 BKN075 BKN085 17/16 A3012 RMK AO1 T01700157
KASL 220955Z AUTO 00000KT 10SM BKN080 BKN085 OVC110 17/16 A3012 RMK AO1 T01700157
KASL 220935Z AUTO 00000KT 10SM SCT080 OVC110 17/16 A3012 RMK AO1 T01700157
KASL 220915Z AUTO 00000KT 10SM BKN110 17/16 A3012 RMK AO1 T01700156
KASL 220855Z AUTO 00000KT 10SM SCT044 SCT080 SCT120 17/16 A3012 RMK AO1 P0002 60003 T01700156
KASL 220835Z AUTO 00000KT 10SM SCT046 SCT080 BKN110 17/16 A3014 RMK AO1 P0001 T01700156
KASL 220815Z AUTO 00000KT 10SM BKN110 17/16 A3015 RMK AO1 T01700155
KASL 220755Z AUTO 00000KT 10SM SCT044 SCT070 BKN120 17/16 A3014 RMK AO1 P0001 T01700155
KASL 220735Z AUTO 33003KT 10SM SCT046 BKN080 OVC120 18/17 A3014 RMK AO1 T01830167
KASL 220715Z AUTO 01005KT 10SM SCT060 BKN090 OVC120 17/16 A3013 RMK AO1 T01730156
KASL 220655Z AUTO 28006KT 10SM BKN100 OVC120 18/17 A3014 RMK AO1 T01830165
KASL 220635Z AUTO 00000KT 10SM BKN110 18/17 A3012 RMK AO1 T01830166
KASL 220615Z AUTO 00000KT 10SM CLR 17/16 A3011 RMK AO1 T01700155
KASL 220555Z AUTO 00000KT 10SM CLR 17/16 A3011 RMK AO1 T01700156 10197 20170 402110146
KASL 220535Z AUTO 00000KT 10SM CLR 17/16 A3013 RMK AO1 T01700156
KASL 220515Z AUTO 00000KT 10SM SCT120 17/16 A3014 RMK AO1 T01700156
KASL 220455Z AUTO 00000KT 10SM SCT120 17/16 A3014 RMK AO1 T01700157
KASL 220435Z AUTO 00000KT 10SM CLR 17/16 A3014 RMK AO1 T01700158
KASL 220415Z AUTO 00000KT 10SM CLR 17/16 A3014 RMK AO1 T01700158
KASL 220355Z AUTO 00000KT 10SM CLR 17/16 A3013 RMK AO1 T01700158
KASL 220335Z AUTO 00000KT 10SM CLR 17/16 A3012 RMK AO1 T01700158
KASL 220315Z AUTO 00000KT 10SM CLR 17/16 A3012 RMK AO1 T01700157
KASL 220255Z AUTO 00000KT 10SM CLR 18/17 A3011 RMK AO1 T01830171
KASL 220235Z AUTO 00000KT 10SM CLR 18/17 A3011 RMK AO1 T01830170
KASL 220215Z AUTO 00000KT 10SM CLR 18/17 A3010 RMK AO1 T01830170
KASL 220155Z AUTO 00000KT 10SM CLR 18/17 A3011 RMK AO1 T01830170
KASL 220135Z AUTO 00000KT 10SM SCT120 18/17 A3010 RMK AO1 T01830168
KASL 220115Z AUTO 00000KT 10SM BKN120 18/17 A3010 RMK AO1 T01830168
KASL 220055Z AUTO 00000KT 10SM SCT120 18/17 A3010 RMK AO1 T01830165
KASL 220035Z AUTO 00000KT 10SM CLR 19/17 A3010 RMK AO1 T01860165
KASL 220015Z AUTO 00000KT 10SM SCT110 20/17 A3009 RMK AO1 T01970170
KASL 212355Z AUTO 00000KT 10SM BKN110 20/17 A3010 RMK AO1 60005 T01970165 10211 20146
KASL 212335Z AUTO 00000KT 10SM SCT110 21/17 A3010 RMK AO1 T02110170
KASL 212315Z AUTO 35004KT 10SM SCT120 20/16 A3010 RMK AO1 T01980155
KASL 212255Z AUTO 36004KT 10SM BKN120 21/17 A3010 RMK AO1 T02110166
KASL 212235Z AUTO 01004KT 10SM SCT120 21/16 A3010 RMK AO1 T02110160
KASL 212215Z AUTO 00000KT 10SM CLR 21/16 A3011 RMK AO1 T02110161
KASL 212155Z AUTO 02004KT 10SM CLR 21/16 A3010 RMK AO1 T02110160
KASL 212135Z AUTO 02004KT 10SM CLR 20/15 A3011 RMK AO1 T02000150
KASL 212115Z AUTO 05004KT 10SM CLR 20/15 A3011 RMK AO1 T01970150
KASL 212055Z AUTO 00000KT 10SM CLR 18/15 A3013 RMK AO1 P0001 60005 T01830145
KASL 212035Z AUTO 00000KT 10SM CLR 18/15 A3014 RMK AO1 P0001 T01750148
KASL 212015Z AUTO 00000KT 10SM SCT027 SCT050 SCT065 16/14 A3012 RMK AO1 P0001 T01550140
KASL 211955Z AUTO 05007KT 10SM SCT024 SCT048 BKN085 15/14 A3007 RMK AO1 P0001 T01480135
KASL 211935Z AUTO 09004KT 10SM SCT047 BKN085 OVC120 16/14 A3015 RMK AO1 P0001 T01550140
KASL 211915Z AUTO 36005KT 10SM BKN120 16/14 A3017 RMK AO1 T01550140
KASL 211855Z AUTO 34004KT 10SM SCT050 SCT120 16/14 A3018 RMK AO1 P0003 T01550141
KASL 211835Z AUTO 00000KT 7SM SCT048 BKN065 BKN075 16/14 A3014 RMK AO1 P0003 T01550141
KASL 211815Z AUTO 07003KT 10SM SCT035 BKN048 BKN065 16/14 A3014 RMK AO1 P0001 T01550141
KASL 211755Z AUTO 00000KT 10SM SCT030 BKN045 OVC055 16/14 A3017 RMK AO1 P0011 60065 T01550140 10183 20148
KASL 211735Z AUTO 00000KT 7SM SCT013 SCT028 BKN044 17/15 A3018 RMK AO1 P0009 T01650149
KASL 211715Z AUTO 12003KT 5SM SCT019 BKN031 OVC100 16/14 A3017 RMK AO1 P0005 T01550138
KASL 211655Z AUTO 00000KT 5SM SCT033 BKN044 OVC080 17/15 A3019 RMK AO1 P0002 T01700150


Page loaded:  04:54 UTC  |   09:54 PM Pacific  |   10:54 PM Mountain  |   11:54 PM Central  |   12:54 AM Eastern

 

ADVISORIES

FORECASTS

FORECASTS

OBSERVATIONS

USER TOOLS

ABOUT US